Time;durP1;ratioP1;P1;durP2;ratioP2;P2;SDS_P1;SDS_P2;PMS_P1;PMS_P2;Temp;Humidity;BMP_temperature;BMP_pressure;BME280_temperature;BME280_humidity;BME280_pressure;Samples;Min_cycle;Max_cycle;Signal;HPM_P1;HPM_P2
2023/09/15 00:01:39;;;;;;;2.20;1.25;;;17.20;72.70;;;;;;5046721;28;20024;-17
2023/09/15 00:04:06;;;;;;;2.40;1.48;;;17.10;70.30;;;;;;5047169;28;20059;-16
2023/09/15 00:06:35;;;;;;;2.45;1.23;;;17.10;69.20;;;;;;5057171;28;20035;-17
2023/09/15 00:09:06;;;;;;;2.60;1.47;;;17.10;69.70;;;;;;5040545;28;20344;-17
2023/09/15 00:11:42;;;;;;;2.67;1.45;;;17.10;69.70;;;;;;5047702;28;20644;-17
2023/09/15 00:14:11;;;;;;;2.53;1.40;;;17.00;69.80;;;;;;5038147;28;20652;-17
2023/09/15 00:16:42;;;;;;;2.20;1.65;;;17.00;69.50;;;;;;5055733;28;20542;-16
2023/09/15 00:19:16;;;;;;;1.83;1.40;;;17.00;69.50;;;;;;5017548;28;20020;-17
2023/09/15 00:21:43;;;;;;;2.17;1.27;;;16.50;73.30;;;;;;5057528;28;20102;-15
2023/09/15 00:24:09;;;;;;;2.08;1.30;;;16.90;69.60;;;;;;5018726;28;20045;-15
2023/09/15 00:26:35;;;;;;;1.88;1.17;;;16.90;69.50;;;;;;5045810;28;20108;-15
2023/09/15 00:29:02;;;;;;;2.28;1.45;;;16.90;69.50;;;;;;5053406;28;20510;-15
2023/09/15 00:31:29;;;;;;;1.63;1.30;;;16.90;69.60;;;;;;5058603;28;20384;-15
2023/09/15 00:33:55;;;;;;;1.77;1.25;;;16.80;69.60;;;;;;5037158;28;20021;-16
2023/09/15 00:36:20;;;;;;;1.83;1.15;;;16.80;69.60;;;;;;5054788;28;20052;-17
2023/09/15 00:38:46;;;;;;;2.67;1.38;;;16.80;69.60;;;;;;5040535;28;20167;-16
2023/09/15 00:41:13;;;;;;;2.73;1.50;;;16.80;69.70;;;;;;5024219;28;20040;-17
2023/09/15 00:43:39;;;;;;;1.73;1.13;;;16.70;69.70;;;;;;5041057;28;20059;-17
2023/09/15 00:46:06;;;;;;;1.90;1.27;;;16.70;69.80;;;;;;5056176;28;20059;-18
2023/09/15 00:48:32;;;;;;;2.88;1.42;;;16.70;69.80;;;;;;5050792;28;20039;-17
2023/09/15 00:50:58;;;;;;;2.05;1.35;;;16.60;69.80;;;;;;5032063;28;20562;-16
2023/09/15 00:53:24;;;;;;;3.73;1.50;;;16.60;69.90;;;;;;5038581;28;20024;-17
2023/09/15 00:55:51;;;;;;;2.10;1.40;;;16.60;70.00;;;;;;5073353;28;20713;-16
2023/09/15 00:58:19;;;;;;;1.77;1.10;;;16.60;70.10;;;;;;5029895;28;20110;-17
2023/09/15 01:00:45;;;;;;;1.90;1.40;;;16.50;70.10;;;;;;5054213;28;20029;-18
2023/09/15 01:05:45;;;;;;;2.40;1.50;;;16.40;69.50;;;;;;4908033;28;20063;-18
2023/09/15 01:08:12;;;;;;;1.60;1.30;;;16.40;70.40;;;;;;4942993;28;20573;-18
2023/09/15 01:10:38;;;;;;;2.28;1.60;;;16.40;70.20;;;;;;4924150;28;20023;-18
2023/09/15 01:13:05;;;;;;;2.28;1.48;;;16.40;70.30;;;;;;4924287;28;20113;-18
2023/09/15 01:15:54;;;;;;;2.25;1.48;;;16.40;70.40;;;;;;4939912;28;20511;-18
2023/09/15 01:18:39;;;;;;;2.93;1.50;;;16.30;71.80;;;;;;4944125;28;20039;-18
2023/09/15 01:21:31;;;;;;;2.50;1.63;;;16.30;71.10;;;;;;4904748;28;20660;-18
2023/09/15 01:24:08;;;;;;;2.92;1.67;;;15.70;73.50;;;;;;4931246;28;20032;-18
2023/09/15 01:26:59;;;;;;;2.90;1.58;;;16.20;70.40;;;;;;4921318;28;20116;-18
2023/09/15 01:29:25;;;;;;;1.77;1.40;;;16.10;72.00;;;;;;4924625;28;20430;-18
2023/09/15 01:31:52;;;;;;;2.10;1.33;;;16.10;70.50;;;;;;5029165;28;20038;-18
2023/09/15 01:34:18;;;;;;;2.25;1.40;;;16.10;70.70;;;;;;4925747;28;20246;-18
2023/09/15 01:36:44;;;;;;;2.47;1.70;;;16.10;70.70;;;;;;4891541;28;20421;-18
2023/09/15 01:39:10;;;;;;;2.47;1.57;;;13.90;75.50;;;;;;4931540;28;20371;-18
2023/09/15 01:41:36;;;;;;;2.13;1.40;;;16.50;74.50;;;;;;4912693;28;20020;-18
2023/09/15 01:44:03;;;;;;;2.27;1.50;;;15.90;70.80;;;;;;4918083;28;20818;-18
2023/09/15 01:46:28;;;;;;;2.35;1.58;;;15.90;70.90;;;;;;4936388;28;20370;-18
2023/09/15 01:48:56;;;;;;;2.85;1.80;;;15.90;71.10;;;;;;5031172;28;20026;-19
2023/09/15 01:51:23;;;;;;;2.20;1.52;;;15.90;71.20;;;;;;4904386;28;20053;-18
2023/09/15 01:53:52;;;;;;;1.87;1.20;;;15.90;71.20;;;;;;4939725;28;20481;-18
2023/09/15 01:56:19;;;;;;;2.08;1.52;;;15.80;71.20;;;;;;4917786;28;20854;-18
2023/09/15 01:58:45;;;;;;;2.25;1.55;;;15.80;71.30;;;;;;4929256;28;20054;-18
2023/09/15 02:01:14;;;;;;;2.22;1.40;;;15.80;71.30;;;;;;4923451;28;20502;-18
2023/09/15 02:03:39;;;;;;;2.40;1.77;;;15.80;71.70;;;;;;4944570;28;20039;-18
2023/09/15 02:06:05;;;;;;;2.53;1.47;;;15.60;75.00;;;;;;4931622;28;20027;-18
2023/09/15 02:08:31;;;;;;;2.45;1.35;;;15.70;71.40;;;;;;4912771;28;20256;-18
2023/09/15 02:10:57;;;;;;;5.23;1.40;;;15.70;71.40;;;;;;4936467;28;20015;-18
2023/09/15 02:13:23;;;;;;;2.33;1.50;;;15.70;71.40;;;;;;4913452;28;20039;-19
2023/09/15 02:15:53;;;;;;;2.13;1.38;;;17.20;75.90;;;;;;4921348;28;20602;-18
2023/09/15 02:18:19;;;;;;;2.50;1.50;;;15.60;71.80;;;;;;5026878;28;20031;-19
2023/09/15 02:20:54;;;;;;;2.55;1.65;;;15.60;71.50;;;;;;4919954;28;20032;-18
2023/09/15 02:23:23;;;;;;;2.95;1.70;;;15.60;72.50;;;;;;4923739;28;20032;-18
2023/09/15 02:25:49;;;;;;;2.15;1.55;;;15.60;71.70;;;;;;4927001;28;20121;-19
2023/09/15 02:28:16;;;;;;;2.60;1.77;;;15.50;75.10;;;;;;4920544;28;20094;-18
2023/09/15 02:30:41;;;;;;;2.03;1.60;;;15.50;71.80;;;;;;4923080;28;20023;-19
2023/09/15 02:33:07;;;;;;;2.55;1.58;;;15.50;71.80;;;;;;4929707;28;20543;-18
2023/09/15 02:35:33;;;;;;;3.40;2.13;;;15.50;71.80;;;;;;4933490;28;20505;-19
2023/09/15 02:37:59;;;;;;;2.88;1.77;;;15.40;71.90;;;;;;4904930;28;20310;-19
2023/09/15 02:40:25;;;;;;;3.10;2.00;;;15.40;75.30;;;;;;4935771;28;20039;-18
2023/09/15 02:42:51;;;;;;;3.20;1.80;;;15.30;72.00;;;;;;4919136;28;20049;-19
2023/09/15 02:45:17;;;;;;;3.88;1.92;;;15.40;72.20;;;;;;4935154;28;20035;-18
2023/09/15 02:47:43;;;;;;;3.00;2.13;;;15.40;72.30;;;;;;4924576;28;20493;-19
2023/09/15 02:50:09;;;;;;;3.30;1.63;;;15.30;72.20;;;;;;4931961;28;20035;-18
2023/09/15 02:52:35;;;;;;;3.58;2.10;;;14.70;75.90;;;;;;4923788;28;20531;-19
2023/09/15 02:55:01;;;;;;;3.40;2.30;;;15.30;72.50;;;;;;4912259;28;20116;-18
2023/09/15 02:57:28;;;;;;;3.63;1.90;;;15.30;72.50;;;;;;4940100;28;20495;-18
2023/09/15 02:59:53;;;;;;;3.20;1.97;;;15.30;72.60;;;;;;4919681;28;20048;-18
2023/09/15 03:02:22;;;;;;;3.20;2.03;;;15.30;72.70;;;;;;4926984;28;20490;-18
2023/09/15 03:04:48;;;;;;;3.17;2.10;;;15.20;73.00;;;;;;4932263;28;20098;-19
2023/09/15 03:07:15;;;;;;;3.17;2.00;;;15.20;72.70;;;;;;4934136;28;20181;-18
2023/09/15 03:09:41;;;;;;;3.80;2.28;;;15.30;72.80;;;;;;4926671;28;20508;-19
2023/09/15 03:12:07;;;;;;;4.60;2.85;;;14.70;76.90;;;;;;4922043;28;20027;-18
2023/09/15 03:14:33;;;;;;;3.92;2.45;;;15.20;73.00;;;;;;4916405;28;20498;-18
2023/09/15 03:16:59;;;;;;;3.30;2.20;;;15.20;73.10;;;;;;4925926;28;20039;-18
2023/09/15 03:19:25;;;;;;;4.38;2.00;;;14.80;76.30;;;;;;4925750;28;20267;-18
2023/09/15 03:21:51;;;;;;;3.63;2.00;;;15.10;73.90;;;;;;4935462;28;20032;-18
2023/09/15 03:24:18;;;;;;;3.22;1.90;;;15.10;73.10;;;;;;4919867;28;20086;-19
2023/09/15 03:26:45;;;;;;;3.80;2.13;;;15.10;73.10;;;;;;4912018;28;20630;-19
2023/09/15 03:29:10;;;;;;;3.13;2.00;;;15.10;73.10;;;;;;4932063;28;20343;-19
2023/09/15 03:31:36;;;;;;;3.05;2.08;;;15.10;73.10;;;;;;4923250;28;20854;-19
2023/09/15 03:34:03;;;;;;;3.22;2.05;;;15.00;73.00;;;;;;4925600;28;20068;-19
2023/09/15 03:36:29;;;;;;;3.85;2.20;;;15.00;73.00;;;;;;4939879;28;20027;-19
2023/09/15 03:38:58;;;;;;;3.27;1.83;;;15.00;73.10;;;;;;4927498;28;20553;-19
2023/09/15 03:41:25;;;;;;;3.33;2.17;;;14.90;73.40;;;;;;4908803;28;20217;-18
2023/09/15 03:43:52;;;;;;;3.13;2.00;;;15.00;73.30;;;;;;4939052;28;20110;-18
2023/09/15 03:46:17;;;;;;;3.65;1.98;;;14.90;74.10;;;;;;4919116;28;20676;-18
2023/09/15 03:48:43;;;;;;;3.50;2.40;;;14.90;73.20;;;;;;4927242;28;20031;-18
2023/09/15 03:51:09;;;;;;;4.13;2.28;;;14.90;74.20;;;;;;4932172;28;20027;-19
2023/09/15 03:53:34;;;;;;;4.33;2.43;;;14.90;73.50;;;;;;4940429;28;20031;-18
2023/09/15 03:56:00;;;;;;;3.63;2.28;;;14.90;73.60;;;;;;4909574;28;20567;-19
2023/09/15 03:58:26;;;;;;;4.40;2.50;;;15.00;77.90;;;;;;4929655;28;20424;-18
2023/09/15 04:00:52;;;;;;;3.47;2.25;;;14.80;73.50;;;;;;4930627;28;20047;-19
2023/09/15 04:03:19;;;;;;;4.43;2.30;;;14.80;73.60;;;;;;4914859;28;20140;-19
2023/09/15 04:05:45;;;;;;;3.63;2.10;;;14.80;73.70;;;;;;4933328;28;20042;-18
2023/09/15 04:08:11;;;;;;;3.47;2.30;;;15.40;78.40;;;;;;4929314;28;20100;-18
2023/09/15 04:10:38;;;;;;;3.17;2.10;;;14.80;73.70;;;;;;4926084;28;20035;-18
2023/09/15 04:13:04;;;;;;;3.10;2.13;;;14.70;73.80;;;;;;4907948;28;20038;-18
2023/09/15 04:15:29;;;;;;;3.65;2.38;;;14.70;73.80;;;;;;4938677;28;20493;-18
2023/09/15 04:17:55;;;;;;;4.23;2.43;;;14.70;74.00;;;;;;4922312;28;20044;-19
2023/09/15 04:20:21;;;;;;;4.00;2.42;;;14.70;74.00;;;;;;4929303;28;20066;-18
2023/09/15 04:22:47;;;;;;;4.85;2.85;;;14.70;74.10;;;;;;4935268;28;20035;-18
2023/09/15 04:25:13;;;;;;;3.83;2.27;;;14.70;74.20;;;;;;4924801;28;20486;-18
2023/09/15 04:27:39;;;;;;;4.47;2.53;;;14.60;74.20;;;;;;4915556;28;20028;-18
2023/09/15 04:30:05;;;;;;;4.80;2.67;;;14.70;74.30;;;;;;4930374;28;20031;-18
2023/09/15 04:32:31;;;;;;;4.47;2.70;;;14.60;74.40;;;;;;4919991;28;20713;-18
2023/09/15 04:34:56;;;;;;;4.10;2.70;;;14.60;74.50;;;;;;4923733;28;20035;-18
2023/09/15 04:37:23;;;;;;;3.77;2.40;;;14.60;74.50;;;;;;4931504;28;20354;-19
2023/09/15 04:39:53;;;;;;;3.72;2.53;;;14.60;74.60;;;;;;4939022;28;20031;-18
2023/09/15 04:42:20;;;;;;;4.57;2.70;;;14.60;74.60;;;;;;4914319;28;20031;-18
2023/09/15 04:44:46;;;;;;;3.65;2.22;;;14.60;74.60;;;;;;4940355;28;20122;-18
2023/09/15 04:47:33;;;;;;;5.13;2.70;;;15.50;79.50;;;;;;4918851;28;20125;-19
2023/09/15 04:49:59;;;;;;;4.03;2.53;;;14.50;76.00;;;;;;4926544;28;20303;-19
2023/09/15 04:52:25;;;;;;;3.95;2.45;;;14.50;74.80;;;;;;4933037;28;20077;-18
2023/09/15 04:54:52;;;;;;;5.30;2.75;;;14.00;78.50;;;;;;4928073;28;20711;-19
2023/09/15 04:57:19;;;;;;;3.87;2.43;;;14.50;74.90;;;;;;4936468;28;20031;-19
2023/09/15 04:59:46;;;;;;;4.28;2.28;;;14.50;75.00;;;;;;4911441;28;20137;-19
2023/09/15 05:02:13;;;;;;;4.90;2.65;;;14.20;78.60;;;;;;4927571;28;20099;-19
2023/09/15 05:04:39;;;;;;;4.35;2.70;;;14.40;75.10;;;;;;4925170;28;20061;-18
2023/09/15 05:07:05;;;;;;;4.60;2.92;;;14.40;75.10;;;;;;4923560;28;20023;-18
2023/09/15 05:09:31;;;;;;;4.70;2.77;;;14.40;75.10;;;;;;4921311;28;20035;-18
2023/09/15 05:11:57;;;;;;;5.22;2.90;;;14.40;75.20;;;;;;4925597;28;20035;-19
2023/09/15 05:14:22;;;;;;;4.43;2.67;;;14.40;75.30;;;;;;4912920;28;20045;-19
2023/09/15 05:16:49;;;;;;;4.43;2.80;;;14.40;75.30;;;;;;4932617;28;20035;-19
2023/09/15 05:19:15;;;;;;;5.68;2.70;;;14.40;75.30;;;;;;4920195;28;20465;-18
2023/09/15 05:21:41;;;;;;;3.97;2.70;;;13.30;80.30;;;;;;4921553;28;20141;-19
2023/09/15 05:24:07;;;;;;;4.47;2.67;;;14.30;75.40;;;;;;4928673;28;20031;-19
2023/09/15 05:26:32;;;;;;;4.72;2.78;;;14.40;75.60;;;;;;4928775;28;21170;-18
2023/09/15 05:28:58;;;;;;;4.30;2.83;;;14.40;75.60;;;;;;4937471;28;20070;-19
2023/09/15 05:31:25;;;;;;;4.35;2.65;;;14.30;79.40;;;;;;4923981;28;20577;-19
2023/09/15 05:33:57;;;;;;;4.97;2.80;;;13.00;80.90;;;;;;4922842;28;21421;-19
2023/09/15 05:36:24;;;;;;;4.50;2.77;;;15.90;80.50;;;;;;4924664;28;20042;-19
2023/09/15 05:38:50;;;;;;;4.07;2.58;;;14.30;75.80;;;;;;4927712;28;20430;-19
2023/09/15 05:41:16;;;;;;;4.18;2.53;;;13.90;80.10;;;;;;4934658;28;20043;-18
2023/09/15 05:43:42;;;;;;;4.90;3.00;;;14.30;75.80;;;;;;4927149;28;20513;-19
2023/09/15 05:46:08;;;;;;;4.80;2.80;;;14.30;75.80;;;;;;4909476;28;20071;-19
2023/09/15 05:48:34;;;;;;;5.03;2.90;;;14.30;76.00;;;;;;4932190;28;20987;-18
2023/09/15 05:50:59;;;;;;;4.90;2.60;;;14.30;76.10;;;;;;4921107;28;20027;-19
2023/09/15 05:53:25;;;;;;;5.10;2.67;;;14.30;76.10;;;;;;4924608;28;20243;-19
2023/09/15 05:55:50;;;;;;;6.40;3.10;;;14.40;76.30;;;;;;4927504;28;20035;-18
2023/09/15 05:58:16;;;;;;;5.50;2.77;;;14.20;79.90;;;;;;4928151;28;20027;-18
2023/09/15 06:00:42;;;;;;;4.97;2.80;;;14.40;76.50;;;;;;4911565;28;20039;-19
2023/09/15 06:03:09;;;;;;;5.28;2.80;;;14.40;76.50;;;;;;4933728;28;20611;-19
2023/09/15 06:05:34;;;;;;;4.83;2.87;;;14.40;76.60;;;;;;4922319;28;20806;-18
2023/09/15 06:08:03;;;;;;;5.63;2.90;;;14.40;76.80;;;;;;4933385;28;20266;-19
2023/09/15 06:10:29;;;;;;;4.93;2.83;;;14.40;77.10;;;;;;4913485;28;20232;-19
2023/09/15 06:12:55;;;;;;;6.38;3.33;;;14.50;77.10;;;;;;4934761;28;20039;-19
2023/09/15 06:15:21;;;;;;;4.37;2.80;;;15.20;81.60;;;;;;4923155;28;20038;-18
2023/09/15 06:17:48;;;;;;;5.70;2.67;;;14.50;77.40;;;;;;4912544;28;20713;-18
2023/09/15 06:20:14;;;;;;;4.43;2.63;;;14.50;77.50;;;;;;4920099;28;20070;-19
2023/09/15 06:22:39;;;;;;;5.30;2.70;;;14.60;77.60;;;;;;4930670;28;20130;-18
2023/09/15 06:25:06;;;;;;;5.80;2.70;;;14.60;77.60;;;;;;4923970;28;20031;-18
2023/09/15 06:27:33;;;;;;;4.72;2.63;;;14.60;77.90;;;;;;4924038;28;20054;-18
2023/09/15 06:29:59;;;;;;;4.13;2.47;;;14.60;77.70;;;;;;4923437;28;20036;-18
2023/09/15 06:32:25;;;;;;;5.13;2.88;;;14.70;77.90;;;;;;4907645;28;20354;-19
2023/09/15 06:34:50;;;;;;;4.32;2.97;;;14.70;77.90;;;;;;4931952;28;20016;-18
2023/09/15 06:37:16;;;;;;;4.73;2.73;;;14.20;81.70;;;;;;4912693;28;20525;-18
2023/09/15 06:39:42;;;;;;;5.50;2.58;;;14.80;78.10;;;;;;4923878;28;20023;-18
2023/09/15 06:42:08;;;;;;;5.00;2.70;;;14.70;81.60;;;;;;4923216;28;20066;-18
2023/09/15 06:44:35;;;;;;;4.80;2.57;;;14.10;82.50;;;;;;4921619;28;20092;-18
2023/09/15 06:47:01;;;;;;;4.53;2.72;;;14.90;78.30;;;;;;4921477;28;20548;-19
2023/09/15 06:49:27;;;;;;;4.72;2.70;;;13.80;81.70;;;;;;4910505;28;20024;-18
2023/09/15 06:51:54;;;;;;;4.80;2.92;;;15.00;79.30;;;;;;4927173;28;20069;-18
2023/09/15 06:54:21;;;;;;;4.90;3.38;;;16.10;83.60;;;;;;4925162;28;20522;-18
2023/09/15 06:56:47;;;;;;;4.67;3.10;;;15.80;83.60;;;;;;4937529;28;20043;-18
2023/09/15 06:59:13;;;;;;;5.07;3.10;;;15.20;79.10;;;;;;4932883;28;20320;-18
2023/09/15 07:01:39;;;;;;;3.78;2.53;;;15.20;79.10;;;;;;4922647;28;20488;-18
2023/09/15 07:04:06;;;;;;;4.40;2.60;;;15.30;79.30;;;;;;4887310;28;20051;-18
2023/09/15 07:06:31;;;;;;;4.40;2.90;;;15.40;79.80;;;;;;4925526;28;20034;-18
2023/09/15 07:08:58;;;;;;;4.43;2.70;;;15.50;80.70;;;;;;4920189;28;20052;-18
2023/09/15 07:11:24;;;;;;;4.70;2.70;;;15.80;85.80;;;;;;4912792;28;20324;-18
2023/09/15 07:13:49;;;;;;;5.75;2.90;;;16.10;82.80;;;;;;4921471;28;20027;-18
2023/09/15 07:16:15;;;;;;;4.40;2.40;;;16.40;82.30;;;;;;4934841;28;20031;-18
2023/09/15 07:18:41;;;;;;;5.70;2.80;;;16.70;81.80;;;;;;4909982;28;20609;-18
2023/09/15 07:21:07;;;;;;;4.00;2.65;;;17.00;81.50;;;;;;4938100;28;20453;-19
2023/09/15 07:23:32;;;;;;;4.07;2.47;;;17.20;81.90;;;;;;4932851;28;20042;-19
2023/09/15 07:25:59;;;;;;;4.47;2.85;;;17.50;83.00;;;;;;4931456;28;20496;-19
2023/09/15 07:28:25;;;;;;;3.65;2.55;;;17.90;84.30;;;;;;4950474;28;20016;-19
2023/09/15 07:30:51;;;;;;;3.50;2.30;;;18.30;85.70;;;;;;4941020;28;20105;-19
2023/09/15 07:33:17;;;;;;;3.75;2.45;;;18.80;86.50;;;;;;4929693;28;20482;-19
2023/09/15 07:35:42;;;;;;;4.33;2.50;;;19.40;87.00;;;;;;4919917;28;20122;-19
2023/09/15 07:38:08;;;;;;;3.95;2.65;;;20.00;87.30;;;;;;5025087;28;20087;-19
2023/09/15 07:40:34;;;;;;;4.40;2.55;;;20.60;87.30;;;;;;4916168;28;20382;-19
2023/09/15 07:43:00;;;;;;;4.40;2.73;;;21.30;87.30;;;;;;4925713;28;20098;-19
2023/09/15 07:45:27;;;;;;;5.20;3.13;;;21.90;86.90;;;;;;4919800;28;20418;-19
2023/09/15 07:47:52;;;;;;;4.40;2.95;;;22.50;86.50;;;;;;4926981;28;20482;-19
2023/09/15 07:50:18;;;;;;;4.47;3.33;;;23.10;85.80;;;;;;4903802;28;20033;-19
2023/09/15 07:52:46;;;;;;;4.25;2.90;;;23.60;84.90;;;;;;4932004;28;20747;-19
2023/09/15 07:55:12;;;;;;;4.25;2.95;;;24.10;83.90;;;;;;4933955;28;20028;-19
2023/09/15 07:57:41;;;;;;;4.40;2.80;;;24.60;83.70;;;;;;4940539;28;20035;-19
2023/09/15 08:00:10;;;;;;;3.70;2.65;;;25.10;82.70;;;;;;4918770;28;20382;-19
2023/09/15 08:02:36;;;;;;;3.63;2.50;;;25.60;81.90;;;;;;4912123;28;20399;-19
2023/09/15 08:05:04;;;;;;;5.18;2.80;;;26.00;81.20;;;;;;4936553;28;20036;-19
2023/09/15 08:07:30;;;;;;;3.72;2.55;;;26.40;80.40;;;;;;4909923;28;20027;-19
2023/09/15 08:09:58;;;;;;;3.50;2.45;;;27.80;77.30;;;;;;4923666;28;20451;-19
2023/09/15 08:12:24;;;;;;;4.30;2.90;;;27.10;79.00;;;;;;4921865;28;20020;-19
2023/09/15 08:14:50;;;;;;;4.00;2.67;;;27.40;78.20;;;;;;4922654;28;20046;-19
2023/09/15 08:17:19;;;;;;;3.35;2.55;;;27.70;77.70;;;;;;4912605;28;20035;-19
2023/09/15 08:19:44;;;;;;;4.07;3.07;;;28.00;75.70;;;;;;4930178;28;20035;-19
2023/09/15 08:22:10;;;;;;;4.18;3.00;;;28.30;76.20;;;;;;4909981;28;20398;-19
2023/09/15 08:24:37;;;;;;;4.17;3.17;;;28.50;75.40;;;;;;4932924;28;20494;-19
2023/09/15 08:27:03;;;;;;;4.53;2.95;;;28.80;74.80;;;;;;4914759;28;20482;-19
2023/09/15 08:29:29;;;;;;;3.97;3.08;;;29.00;73.60;;;;;;4915973;28;20179;-19
2023/09/15 08:31:55;;;;;;;3.90;3.27;;;29.20;72.80;;;;;;4919891;28;20039;-19
2023/09/15 08:34:20;;;;;;;4.15;3.00;;;31.40;71.90;;;;;;4921725;28;20074;-19
2023/09/15 08:36:46;;;;;;;3.72;2.80;;;29.50;71.30;;;;;;4924924;28;20035;-19
2023/09/15 08:39:12;;;;;;;3.63;3.10;;;29.80;70.90;;;;;;4926781;28;20112;-19
2023/09/15 08:42:10;;;;;;;3.63;2.83;;;29.90;70.50;;;;;;4925366;28;20035;-19
2023/09/15 08:44:36;;;;;;;3.60;2.80;;;30.20;67.20;;;;;;4939384;28;20052;-19
2023/09/15 08:47:03;;;;;;;3.67;2.53;;;30.40;69.60;;;;;;4915119;28;20101;-19
2023/09/15 08:49:30;;;;;;;4.45;3.10;;;30.70;69.00;;;;;;4925185;28;20039;-19
2023/09/15 08:51:56;;;;;;;3.80;2.72;;;30.80;68.10;;;;;;4916572;28;20443;-19
2023/09/15 08:54:22;;;;;;;3.55;2.80;;;30.80;65.60;;;;;;4919882;28;20035;-19
2023/09/15 08:56:48;;;;;;;3.83;2.78;;;31.20;67.40;;;;;;4921422;28;20513;-19
2023/09/15 08:59:17;;;;;;;3.70;2.50;;;31.50;66.80;;;;;;4913996;28;20058;-19
2023/09/15 09:01:43;;;;;;;2.80;2.13;;;31.70;65.40;;;;;;4929966;28;20031;-19
2023/09/15 09:04:10;;;;;;;4.60;2.53;;;31.90;66.00;;;;;;4937951;28;20044;-19
2023/09/15 09:06:36;;;;;;;2.95;2.65;;;32.10;65.30;;;;;;4941604;28;20050;-19
2023/09/15 09:09:04;;;;;;;3.77;2.30;;;32.40;64.70;;;;;;4920785;28;20410;-19
2023/09/15 09:11:30;;;;;;;4.50;2.15;;;32.60;64.10;;;;;;4945368;28;20026;-19
2023/09/15 09:13:56;;;;;;;4.28;2.40;;;32.80;63.70;;;;;;4914944;28;20035;-19
2023/09/15 09:16:22;;;;;;;2.63;1.98;;;33.00;63.30;;;;;;4926719;28;20584;-19
2023/09/15 09:19:00;;;;;;;2.60;2.10;;;33.20;62.60;;;;;;4936143;28;20114;-19
2023/09/15 09:21:28;;;;;;;2.55;2.30;;;33.40;59.90;;;;;;4938029;28;20027;-19
2023/09/15 09:23:55;;;;;;;2.67;2.30;;;33.60;61.70;;;;;;4928313;28;20102;-19
2023/09/15 09:26:21;;;;;;;3.03;2.38;;;33.80;60.90;;;;;;4943823;28;20163;-19
2023/09/15 09:28:47;;;;;;;2.85;2.35;;;34.00;60.60;;;;;;4916616;28;20086;-19
2023/09/15 09:31:14;;;;;;;3.17;2.03;;;34.20;59.90;;;;;;4933775;28;20039;-19
2023/09/15 09:33:44;;;;;;;3.20;2.67;;;34.40;59.40;;;;;;4931017;28;20043;-19
2023/09/15 09:36:14;;;;;;;2.75;2.22;;;34.60;58.80;;;;;;4918397;28;20642;-19
2023/09/15 09:38:45;;;;;;;2.47;2.28;;;34.80;57.20;;;;;;4941690;28;20073;-19
2023/09/15 09:41:11;;;;;;;2.50;2.30;;;34.90;56.60;;;;;;4913576;28;20038;-19
2023/09/15 09:43:43;;;;;;;2.58;2.08;;;35.10;57.90;;;;;;4909753;28;20035;-19
2023/09/15 09:46:10;;;;;;;2.80;2.03;;;35.30;55.50;;;;;;4930078;28;20042;-19
2023/09/15 09:48:36;;;;;;;3.53;2.30;;;35.50;56.30;;;;;;4936571;28;20084;-19
2023/09/15 09:51:03;;;;;;;2.88;2.10;;;35.60;55.40;;;;;;4923250;28;20031;-19
2023/09/15 09:53:34;;;;;;;1.90;1.70;;;35.70;55.10;;;;;;4937747;28;20023;-19
2023/09/15 09:56:01;;;;;;;2.70;2.20;;;35.90;53.70;;;;;;4920514;28;20560;-19
2023/09/15 09:58:27;;;;;;;2.90;2.22;;;36.10;53.90;;;;;;4945304;28;20277;-19
2023/09/15 10:00:53;;;;;;;2.83;1.70;;;36.10;53.00;;;;;;4899781;28;20110;-19
2023/09/15 10:03:23;;;;;;;2.90;1.92;;;36.10;51.70;;;;;;4940641;28;20090;-20
2023/09/15 10:05:52;;;;;;;2.80;2.03;;;35.80;50.30;;;;;;4924689;28;20626;-19
2023/09/15 10:08:18;;;;;;;2.72;1.75;;;35.40;49.30;;;;;;4925483;28;20063;-19
2023/09/15 10:10:46;;;;;;;1.95;1.38;;;35.00;49.60;;;;;;4929412;28;20022;-19
2023/09/15 10:13:13;;;;;;;2.20;1.65;;;34.70;50.00;;;;;;4908974;28;20161;-19
2023/09/15 10:15:43;;;;;;;2.20;1.60;;;34.60;51.10;;;;;;4919197;28;20027;-19
2023/09/15 10:18:12;;;;;;;3.20;2.00;;;34.60;51.00;;;;;;4931829;28;20081;-19
2023/09/15 10:20:58;;;;;;;2.05;1.80;;;34.70;52.00;;;;;;4921429;28;20781;-19
2023/09/15 10:23:24;;;;;;;2.20;2.00;;;34.80;50.00;;;;;;4916770;28;20128;-20
2023/09/15 10:25:54;;;;;;;2.45;1.40;;;34.70;50.60;;;;;;4940976;28;20027;-20
2023/09/15 10:28:24;;;;;;;1.53;1.43;;;34.50;49.30;;;;;;4915088;28;20032;-20
2023/09/15 10:30:55;;;;;;;1.67;1.50;;;34.40;49.40;;;;;;4924597;28;20031;-20
2023/09/15 10:33:27;;;;;;;1.98;1.55;;;34.30;49.50;;;;;;4935425;28;20031;-19
2023/09/15 10:36:04;;;;;;;2.05;1.80;;;34.30;49.70;;;;;;4932819;28;20235;-19
2023/09/15 10:38:32;;;;;;;2.08;1.60;;;34.40;50.30;;;;;;4926711;28;20064;-20
2023/09/15 10:41:04;;;;;;;1.90;1.63;;;34.60;52.00;;;;;;4933591;28;20108;-20
2023/09/15 10:43:31;;;;;;;1.88;1.77;;;34.90;52.50;;;;;;4909267;28;20537;-19
2023/09/15 10:46:03;;;;;;;2.33;2.00;;;35.30;52.50;;;;;;4930360;28;20078;-19
2023/09/15 10:48:48;;;;;;;3.15;2.10;;;35.70;51.70;;;;;;4917471;28;20110;-19
2023/09/15 10:51:19;;;;;;;1.85;1.75;;;36.10;49.50;;;;;;4927633;28;20110;-19
2023/09/15 10:53:59;;;;;;;1.93;1.73;;;36.50;50.40;;;;;;4909765;28;20289;-20
2023/09/15 10:56:25;;;;;;;2.60;2.40;;;36.80;48.60;;;;;;4950351;28;20043;-20
2023/09/15 10:58:51;;;;;;;3.20;2.30;;;37.10;50.10;;;;;;4911326;28;20045;-20
2023/09/15 11:01:18;;;;;;;2.63;2.27;;;37.40;49.80;;;;;;4938320;28;20493;-19
2023/09/15 11:03:45;;;;;;;2.88;2.15;;;37.60;49.00;;;;;;4973124;28;1095819;-18
2023/09/15 11:06:13;;;;;;;2.40;2.10;;;37.80;48.50;;;;;;4942733;28;20027;-17
2023/09/15 11:08:39;;;;;;;2.63;2.13;;;38.10;47.80;;;;;;4936119;28;20016;-18
2023/09/15 11:11:09;;;;;;;2.60;2.23;;;38.20;47.90;;;;;;4939769;28;20434;-18
2023/09/15 11:13:36;;;;;;;2.53;2.10;;;38.40;47.30;;;;;;4908628;28;20114;-18
2023/09/15 11:16:02;;;;;;;3.28;2.50;;;38.50;46.60;;;;;;4929643;28;20311;-18
2023/09/15 11:18:35;;;;;;;2.95;2.55;;;38.70;46.50;;;;;;4929859;28;20330;-18
2023/09/15 11:21:01;;;;;;;2.55;2.00;;;38.80;44.90;;;;;;4933236;28;20390;-18
2023/09/15 11:23:28;;;;;;;2.63;2.43;;;38.90;45.20;;;;;;4923720;28;20097;-18
2023/09/15 11:26:07;;;;;;;3.15;2.10;;;39.00;44.90;;;;;;4936629;28;20409;-18
2023/09/15 11:28:36;;;;;;;3.03;2.50;;;39.10;43.00;;;;;;4913413;28;20374;-18
2023/09/15 11:31:05;;;;;;;2.30;2.00;;;39.10;42.90;;;;;;4918861;28;20032;-17
2023/09/15 11:33:32;;;;;;;2.22;2.03;;;39.10;42.20;;;;;;4915838;28;20608;-18
2023/09/15 11:35:58;;;;;;;2.57;1.63;;;39.00;42.70;;;;;;4939643;28;20249;-18
2023/09/15 11:38:27;;;;;;;2.95;2.25;;;39.00;42.30;;;;;;4929694;28;20284;-18
2023/09/15 11:40:53;;;;;;;3.20;2.05;;;39.00;41.20;;;;;;4935335;28;20015;-18
2023/09/15 11:43:23;;;;;;;2.90;2.00;;;39.00;41.90;;;;;;4932923;28;20097;-18
2023/09/15 11:45:50;;;;;;;2.83;2.10;;;39.20;41.40;;;;;;4904412;28;20039;-18
2023/09/15 11:48:17;;;;;;;2.20;2.00;;;39.20;42.00;;;;;;4941705;28;21113;-18
2023/09/15 11:50:43;;;;;;;2.75;2.13;;;39.30;42.00;;;;;;4933091;28;20560;-18
2023/09/15 11:53:09;;;;;;;2.70;2.30;;;39.30;41.50;;;;;;4927826;28;20122;-18
2023/09/15 11:55:35;;;;;;;1.83;1.60;;;39.50;41.10;;;;;;4919101;28;21249;-18
2023/09/15 11:58:02;;;;;;;2.33;1.90;;;39.70;39.90;;;;;;4938417;28;20027;-19
2023/09/15 12:00:32;;;;;;;2.63;2.05;;;39.60;40.40;;;;;;4884257;28;20023;-18
2023/09/15 12:02:59;;;;;;;2.33;2.13;;;39.70;40.50;;;;;;4922719;28;20227;-18
2023/09/15 12:05:29;;;;;;;2.30;2.10;;;39.70;40.20;;;;;;4928653;28;20625;-18
2023/09/15 12:07:55;;;;;;;2.40;2.20;;;39.70;40.10;;;;;;4928246;28;20111;-18
2023/09/15 12:10:22;;;;;;;2.60;2.00;;;39.80;39.60;;;;;;4921369;28;20043;-18
2023/09/15 12:12:49;;;;;;;2.20;2.00;;;39.80;39.40;;;;;;4916162;28;20066;-19
2023/09/15 12:15:16;;;;;;;1.67;1.38;;;39.80;39.10;;;;;;4912487;28;20557;-18
2023/09/15 12:17:44;;;;;;;2.58;2.22;;;39.80;39.10;;;;;;4909893;28;20042;-19
2023/09/15 12:20:10;;;;;;;2.17;1.98;;;39.80;38.60;;;;;;4935424;28;20096;-19
2023/09/15 12:22:41;;;;;;;1.90;1.80;;;39.80;38.40;;;;;;4931341;28;20032;-18
2023/09/15 12:25:10;;;;;;;2.40;2.20;;;39.70;37.20;;;;;;4928535;28;20031;-18
2023/09/15 12:27:40;;;;;;;1.83;1.73;;;39.60;37.50;;;;;;4929192;28;20366;-18
2023/09/15 12:30:09;;;;;;;1.90;1.70;;;39.60;37.90;;;;;;4934025;28;20019;-19
2023/09/15 12:32:35;;;;;;;2.25;1.88;;;39.60;37.60;;;;;;4895786;28;20118;-19
2023/09/15 12:35:05;;;;;;;2.03;1.83;;;39.50;37.50;;;;;;4961445;28;20449;-18
2023/09/15 12:37:32;;;;;;;1.90;1.80;;;39.40;37.50;;;;;;4920872;28;20058;-19
2023/09/15 12:39:58;;;;;;;1.80;1.70;;;39.40;37.60;;;;;;4925529;28;20085;-18
2023/09/15 12:42:24;;;;;;;2.00;1.77;;;39.30;37.50;;;;;;4916922;28;20027;-19
2023/09/15 12:44:49;;;;;;;2.10;1.90;;;39.40;38.20;;;;;;4936040;28;20095;-18
2023/09/15 12:47:15;;;;;;;1.48;1.38;;;39.30;37.60;;;;;;4906541;28;20495;-18
2023/09/15 12:49:41;;;;;;;1.87;1.67;;;39.30;37.50;;;;;;4928791;28;20047;-18
2023/09/15 12:52:07;;;;;;;1.58;1.48;;;39.30;37.50;;;;;;4926235;28;20028;-18